createdAt,value
2018-04-22T00:00:52.388Z,14.27
2018-04-22T00:03:22.648Z,13.60
2018-04-22T00:05:50.987Z,14.20
2018-04-22T00:08:19.334Z,15.90
2018-04-22T00:10:48.429Z,14.90
2018-04-22T00:13:16.768Z,14.80
2018-04-22T00:15:45.089Z,14.37
2018-04-22T00:18:14.175Z,14.23
2018-04-22T00:20:44.500Z,13.87
2018-04-22T00:23:12.798Z,15.37
2018-04-22T00:25:41.894Z,14.83
2018-04-22T00:28:10.968Z,16.60
2018-04-22T00:30:39.301Z,16.40
2018-04-22T00:33:08.466Z,16.80
2018-04-22T00:35:37.658Z,16.33
2018-04-22T00:38:05.966Z,15.50
2018-04-22T00:40:34.339Z,17.13
2018-04-22T00:43:02.637Z,15.40
2018-04-22T00:45:30.953Z,15.97
2018-04-22T00:47:59.299Z,15.50
2018-04-22T00:50:27.651Z,15.57
2018-04-22T00:52:56.739Z,17.27
2018-04-22T00:55:25.801Z,15.37
2018-04-22T00:57:54.125Z,16.23
2018-04-22T01:00:24.200Z,15.43
2018-04-22T01:02:52.628Z,15.13
2018-04-22T01:05:21.754Z,15.77
2018-04-22T01:07:50.084Z,15.20
2018-04-22T01:10:18.390Z,15.10
2018-04-22T01:12:46.737Z,14.10
2018-04-22T01:15:15.067Z,15.07
2018-04-22T01:17:43.389Z,15.33
2018-04-22T01:20:11.708Z,14.87
2018-04-22T01:22:40.040Z,16.47
2018-04-22T01:25:08.355Z,15.00
2018-04-22T01:27:37.682Z,14.20
2018-04-22T01:30:06.003Z,14.37
2018-04-22T01:32:34.315Z,15.60
2018-04-22T01:35:03.405Z,15.80
2018-04-22T01:37:32.484Z,17.33
2018-04-22T01:40:00.813Z,15.20
2018-04-22T01:42:29.130Z,15.03
2018-04-22T01:44:57.477Z,14.83
2018-04-22T01:47:25.807Z,15.63
2018-04-22T01:49:54.138Z,14.97
2018-04-22T01:52:22.454Z,13.97
2018-04-22T01:54:53.927Z,15.43
2018-04-22T01:57:22.244Z,15.00
2018-04-22T01:59:50.582Z,15.17
2018-04-22T02:02:18.889Z,15.03
2018-04-22T02:04:47.233Z,15.20
2018-04-22T02:07:16.531Z,15.97
2018-04-22T02:09:44.875Z,15.23
2018-04-22T02:12:13.216Z,15.17
2018-04-22T02:14:42.315Z,14.00
2018-04-22T02:17:12.413Z,15.93
2018-04-22T02:19:40.764Z,16.60
2018-04-22T02:22:09.097Z,15.70
2018-04-22T02:24:37.464Z,13.93
2018-04-22T02:27:06.548Z,14.37
2018-04-22T02:29:34.864Z,14.70
2018-04-22T02:32:03.280Z,14.43
2018-04-22T02:34:31.590Z,13.80
2018-04-22T02:36:59.954Z,15.07
2018-04-22T02:39:28.280Z,15.60
2018-04-22T02:41:56.638Z,15.80
2018-04-22T02:44:24.972Z,15.00
2018-04-22T02:46:53.348Z,14.00
2018-04-22T02:49:21.666Z,13.97
2018-04-22T02:51:50.021Z,14.50
2018-04-22T02:54:18.346Z,14.13
2018-04-22T02:56:47.437Z,14.10
2018-04-22T02:59:16.580Z,13.90
2018-04-22T03:01:44.949Z,18.10
2018-04-22T03:04:13.279Z,15.93
2018-04-22T03:06:41.616Z,15.43
2018-04-22T03:09:09.939Z,15.57
2018-04-22T03:11:38.351Z,16.87
2018-04-22T03:14:07.533Z,15.63
2018-04-22T03:16:35.898Z,15.60
2018-04-22T03:19:05.000Z,16.60
2018-04-22T03:21:33.334Z,15.60
2018-04-22T03:24:02.667Z,15.70
2018-04-22T03:26:31.018Z,14.23
2018-04-22T03:28:59.345Z,15.50
2018-04-22T03:31:28.525Z,14.70
2018-04-22T03:33:56.875Z,15.67
2018-04-22T03:36:25.957Z,14.20
2018-04-22T03:38:55.241Z,15.40
2018-04-22T03:41:24.326Z,14.93
2018-04-22T03:43:52.764Z,15.97
2018-04-22T03:46:21.102Z,15.17
2018-04-22T03:48:50.207Z,15.93
2018-04-22T03:51:19.466Z,13.97
2018-04-22T03:53:47.830Z,15.90
2018-04-22T03:56:16.155Z,15.10
2018-04-22T03:58:45.269Z,14.77
2018-04-22T04:01:13.584Z,14.70
2018-04-22T04:03:42.921Z,14.93
2018-04-22T04:06:12.036Z,16.10
2018-04-22T04:08:40.403Z,17.00
2018-04-22T04:11:09.486Z,16.43
2018-04-22T04:13:37.866Z,16.17
2018-04-22T04:16:07.005Z,15.00
2018-04-22T04:21:48.101Z,16.17
2018-04-22T04:24:37.009Z,15.00
2018-04-22T04:27:13.974Z,14.57
2018-04-22T04:29:42.328Z,15.00
2018-04-22T04:32:10.642Z,14.33
2018-04-22T04:34:38.994Z,14.80
2018-04-22T04:37:07.358Z,16.37
2018-04-22T04:39:36.493Z,17.20
2018-04-22T04:42:05.830Z,15.47
2018-04-22T04:44:35.018Z,15.70
2018-04-22T04:47:03.355Z,16.87
2018-04-22T04:49:31.729Z,16.30
2018-04-22T04:52:00.059Z,15.83
2018-04-22T04:54:28.403Z,16.10
2018-04-22T04:56:56.746Z,15.80
2018-04-22T04:59:25.867Z,16.47
2018-04-22T05:01:54.251Z,17.40
2018-04-22T05:04:22.680Z,16.30
2018-04-22T05:06:51.029Z,15.77
2018-04-22T05:09:19.389Z,15.80
2018-04-22T05:11:51.466Z,15.53
2018-04-22T05:14:19.787Z,16.97
2018-04-22T05:16:48.118Z,16.00
2018-04-22T05:19:16.446Z,14.67
2018-04-22T05:21:44.795Z,16.03
2018-04-22T05:24:13.175Z,16.33
2018-04-22T05:26:41.501Z,15.80
2018-04-22T05:29:09.834Z,16.10
2018-04-22T05:31:38.290Z,16.73
2018-04-22T05:34:06.748Z,15.60
2018-04-22T05:36:39.943Z,16.33
2018-04-22T05:39:09.049Z,16.23
2018-04-22T05:41:38.273Z,15.27
2018-04-22T05:44:06.757Z,17.03
2018-04-22T05:46:35.889Z,16.60
2018-04-22T05:49:05.275Z,15.40
2018-04-22T05:51:33.633Z,15.60
2018-04-22T05:54:01.953Z,15.73
2018-04-22T05:56:30.303Z,16.13
2018-04-22T05:58:58.646Z,16.40
2018-04-22T06:01:27.895Z,16.50
2018-04-22T06:03:56.237Z,16.33
2018-04-22T06:06:27.996Z,17.70
2018-04-22T06:08:57.087Z,17.20
2018-04-22T06:11:27.346Z,17.37
2018-04-22T06:13:55.689Z,19.33
2018-04-22T06:16:24.794Z,18.33
2018-04-22T06:18:53.273Z,20.90
2018-04-22T06:21:24.501Z,19.90
2018-04-22T06:26:53.466Z,19.47
2018-04-22T06:29:21.846Z,19.77
2018-04-22T06:31:50.228Z,20.70
2018-04-22T06:34:18.577Z,20.63
2018-04-22T06:36:46.915Z,19.67
2018-04-22T06:39:15.288Z,19.00
2018-04-22T06:41:43.648Z,20.43
2018-04-22T06:44:12.842Z,19.20
2018-04-22T06:46:41.206Z,19.50
2018-04-22T06:49:09.558Z,19.80
2018-04-22T06:51:41.040Z,21.30
2018-04-22T06:54:12.254Z,20.17
2018-04-22T06:56:40.572Z,21.27
2018-04-22T06:59:08.958Z,20.70
2018-04-22T07:01:40.579Z,20.43
2018-04-22T07:04:08.995Z,21.00
2018-04-22T07:06:37.321Z,22.80
2018-04-22T07:09:05.693Z,22.67
2018-04-22T07:11:34.011Z,21.70
2018-04-22T07:14:03.116Z,23.60
2018-04-22T07:16:32.234Z,23.40
2018-04-22T07:19:00.922Z,23.90
2018-04-22T07:21:29.253Z,25.53
2018-04-22T07:23:57.597Z,22.83
2018-04-22T07:26:25.942Z,23.73
2018-04-22T07:28:54.319Z,25.33
2018-04-22T07:31:23.412Z,23.87
2018-04-22T07:33:52.726Z,24.90
2018-04-22T07:36:21.093Z,26.47
2018-04-22T07:38:49.471Z,28.20
2018-04-22T07:41:17.812Z,24.63
2018-04-22T07:43:46.152Z,24.50
2018-04-22T07:46:14.526Z,26.20
2018-04-22T07:48:43.613Z,25.60
2018-04-22T07:51:12.737Z,26.17
2018-04-22T07:53:43.923Z,26.10
2018-04-22T07:56:12.259Z,25.10
2018-04-22T07:58:40.609Z,24.00
2018-04-22T08:01:13.908Z,24.83
2018-04-22T08:03:42.988Z,23.97
2018-04-22T08:06:11.341Z,24.40
2018-04-22T08:08:39.696Z,26.20
2018-04-22T08:11:11.767Z,24.40
2018-04-22T08:13:41.053Z,24.70
2018-04-22T08:16:11.154Z,24.90
2018-04-22T08:18:40.274Z,24.67
2018-04-22T08:21:08.633Z,24.70
2018-04-22T08:23:37.005Z,25.80
2018-04-22T08:26:05.350Z,24.70
2018-04-22T08:28:33.699Z,23.53
2018-04-22T08:31:02.135Z,24.13
2018-04-22T08:33:30.479Z,22.40
2018-04-22T08:35:59.673Z,23.07
2018-04-22T08:38:28.019Z,24.17
2018-04-22T08:41:01.424Z,22.60
2018-04-22T08:43:30.522Z,23.73
2018-04-22T08:45:59.651Z,22.47
2018-04-22T08:48:27.992Z,22.20
2018-04-22T08:50:57.088Z,21.10
2018-04-22T08:53:25.447Z,22.83
2018-04-22T08:55:53.772Z,21.60
2018-04-22T08:58:22.888Z,20.63
2018-04-22T09:00:51.218Z,23.10
2018-04-22T09:03:19.574Z,22.37
2018-04-22T09:05:47.983Z,22.63
2018-04-22T09:08:21.996Z,22.13
2018-04-22T09:10:50.353Z,22.20
2018-04-22T09:13:18.678Z,20.33
2018-04-22T09:15:47.018Z,20.60
2018-04-22T09:18:15.369Z,21.13
2018-04-22T09:20:43.686Z,20.93
2018-04-22T09:23:12.844Z,20.20
2018-04-22T09:25:41.231Z,19.87
2018-04-22T09:28:09.547Z,19.90
2018-04-22T09:30:38.659Z,19.37
2018-04-22T09:33:07.011Z,19.50
2018-04-22T09:35:40.012Z,18.27
2018-04-22T09:38:08.347Z,18.77
2018-04-22T09:40:36.748Z,16.60
2018-04-22T09:43:05.126Z,18.40
2018-04-22T09:45:33.497Z,17.80
2018-04-22T09:48:01.831Z,15.97
2018-04-22T09:50:30.182Z,16.37
2018-04-22T09:52:58.495Z,18.10
2018-04-22T09:55:26.851Z,16.80
2018-04-22T09:57:56.133Z,15.47
2018-04-22T10:00:30.060Z,16.10
2018-04-22T10:02:58.422Z,16.50
2018-04-22T10:08:28.756Z,16.60
2018-04-22T10:10:57.917Z,17.20
2018-04-22T10:13:26.231Z,16.40
2018-04-22T10:15:55.360Z,17.03
2018-04-22T10:18:23.716Z,17.07
2018-04-22T10:20:52.831Z,17.47
2018-04-22T10:23:21.154Z,15.30
2018-04-22T10:25:49.534Z,16.27
2018-04-22T10:28:17.955Z,14.93
2018-04-22T10:30:46.324Z,15.57
2018-04-22T10:33:14.656Z,16.00
2018-04-22T10:35:43.007Z,15.23
2018-04-22T10:38:11.336Z,14.93
2018-04-22T10:40:39.703Z,15.57
2018-04-22T10:43:08.028Z,14.70
2018-04-22T10:45:36.360Z,12.77
2018-04-22T10:48:04.704Z,13.90
2018-04-22T10:50:33.047Z,12.60
2018-04-22T10:53:02.177Z,11.63
2018-04-22T10:55:30.519Z,13.77
2018-04-22T10:57:58.977Z,13.40
2018-04-22T11:00:33.276Z,12.60
2018-04-22T11:03:01.718Z,11.27
2018-04-22T11:05:30.047Z,9.70
2018-04-22T11:07:58.387Z,11.87
2018-04-22T11:10:26.747Z,10.60
2018-04-22T11:12:55.085Z,9.10
2018-04-22T11:15:24.422Z,8.40
2018-04-22T11:17:52.766Z,6.70
2018-04-22T11:20:21.091Z,8.53
2018-04-22T11:22:49.434Z,8.60
2018-04-22T11:25:18.546Z,7.47
2018-04-22T11:27:47.023Z,7.43
2018-04-22T11:30:16.182Z,6.20
2018-04-22T11:32:44.524Z,6.43
2018-04-22T11:35:13.774Z,6.30
2018-04-22T11:37:42.143Z,6.90
2018-04-22T11:40:10.452Z,6.27
2018-04-22T11:42:39.571Z,6.30
2018-04-22T11:45:08.673Z,5.70
2018-04-22T11:47:37.056Z,6.57
2018-04-22T11:50:05.380Z,5.40
2018-04-22T11:52:33.736Z,5.47
2018-04-22T11:55:02.099Z,4.43
2018-04-22T11:57:30.435Z,4.70
2018-04-22T12:00:00.906Z,4.70
2018-04-22T12:02:29.245Z,4.50
2018-04-22T12:04:57.593Z,4.60
2018-04-22T12:07:25.931Z,4.40
2018-04-22T12:09:54.294Z,4.33
2018-04-22T12:12:22.627Z,4.37
2018-04-22T12:14:51.935Z,3.70
2018-04-22T12:17:20.280Z,4.03
2018-04-22T12:19:48.651Z,3.67
2018-04-22T12:22:16.996Z,3.17
2018-04-22T12:24:45.339Z,3.90
2018-04-22T12:27:18.246Z,4.73
2018-04-22T12:29:46.664Z,3.80
2018-04-22T12:32:14.984Z,3.80
2018-04-22T12:34:43.321Z,3.70
2018-04-22T12:37:11.647Z,4.07
2018-04-22T12:39:53.370Z,4.03
2018-04-22T12:42:21.743Z,3.53
2018-04-22T12:44:50.126Z,4.57
2018-04-22T12:47:18.454Z,4.07
2018-04-22T12:49:46.798Z,3.77
2018-04-22T12:52:15.123Z,4.40
2018-04-22T12:54:43.454Z,3.77
2018-04-22T12:57:11.781Z,4.07
2018-04-22T12:59:40.875Z,3.63
2018-04-22T13:02:12.832Z,3.67
2018-04-22T13:04:41.957Z,3.20
2018-04-22T13:07:15.925Z,3.97
2018-04-22T13:09:44.321Z,3.73
2018-04-22T13:12:12.653Z,4.00
2018-04-22T13:14:41.006Z,3.30
2018-04-22T13:17:09.352Z,4.03
2018-04-22T13:19:37.701Z,3.13
2018-04-22T13:22:06.072Z,3.57
2018-04-22T13:24:34.408Z,3.50
2018-04-22T13:27:03.522Z,3.30
2018-04-22T13:29:32.721Z,3.70
2018-04-22T13:32:01.201Z,3.80
2018-04-22T13:34:29.525Z,4.23
2018-04-22T13:36:58.696Z,4.10
2018-04-22T13:39:27.019Z,4.20
2018-04-22T13:41:56.119Z,4.47
2018-04-22T13:44:25.220Z,3.90
2018-04-22T13:46:54.325Z,3.90
2018-04-22T13:49:22.638Z,4.13
2018-04-22T13:51:50.994Z,3.73
2018-04-22T13:54:19.399Z,3.73
2018-04-22T13:56:49.701Z,4.67
2018-04-22T13:59:22.329Z,3.97
2018-04-22T14:01:50.700Z,3.27
2018-04-22T14:04:20.001Z,3.43
2018-04-22T14:06:48.378Z,3.67
2018-04-22T14:09:17.560Z,3.80
2018-04-22T14:11:46.902Z,3.40
2018-04-22T14:14:15.968Z,3.03
2018-04-22T14:16:44.423Z,3.70
2018-04-22T14:19:12.764Z,3.50
2018-04-22T14:21:45.524Z,3.47
2018-04-22T14:24:15.636Z,3.07
2018-04-22T14:26:44.008Z,3.30
2018-04-22T14:29:12.449Z,3.50
2018-04-22T14:31:40.886Z,3.00
2018-04-22T14:34:13.389Z,3.23
2018-04-22T14:36:41.734Z,3.43
2018-04-22T14:39:10.828Z,3.40
2018-04-22T14:41:39.179Z,2.77
2018-04-22T14:44:19.210Z,2.93
2018-04-22T14:46:48.320Z,3.20
2018-04-22T14:49:16.642Z,3.03
2018-04-22T14:51:44.991Z,3.23
2018-04-22T14:54:13.321Z,2.90
2018-04-22T14:56:41.636Z,2.93
2018-04-22T14:59:09.967Z,3.10
2018-04-22T15:01:39.091Z,3.23
2018-04-22T15:04:07.430Z,2.93
2018-04-22T15:06:36.506Z,3.10
2018-04-22T15:09:05.652Z,3.40
2018-04-22T15:11:33.995Z,3.20
2018-04-22T15:14:02.338Z,3.17
2018-04-22T15:16:30.652Z,3.23
2018-04-22T15:18:59.756Z,3.30
2018-04-22T15:21:28.095Z,3.80
2018-04-22T15:23:56.462Z,3.17
2018-04-22T15:26:28.333Z,2.83
2018-04-22T15:28:56.660Z,2.83
2018-04-22T15:31:24.976Z,3.17
2018-04-22T15:33:53.336Z,3.53
2018-04-22T15:36:21.655Z,2.50
2018-04-22T15:38:49.998Z,2.63
2018-04-22T15:41:18.309Z,2.70
2018-04-22T15:43:46.670Z,2.90
2018-04-22T15:46:18.231Z,2.93
2018-04-22T15:48:46.589Z,2.00
2018-04-22T15:51:15.968Z,2.50
2018-04-22T15:53:44.290Z,3.13
2018-04-22T15:56:12.620Z,2.53
2018-04-22T15:58:41.851Z,2.27
2018-04-22T16:01:10.189Z,2.30
2018-04-22T16:03:38.548Z,2.63
2018-04-22T16:06:06.910Z,2.47
2018-04-22T16:08:36.008Z,2.50
2018-04-22T16:11:04.336Z,2.87
2018-04-22T16:13:32.654Z,2.63
2018-04-22T16:16:00.980Z,2.57
2018-04-22T16:18:30.687Z,2.30
2018-04-22T16:21:01.009Z,2.33
2018-04-22T16:23:29.322Z,2.67
2018-04-22T16:25:57.674Z,2.30
2018-04-22T16:28:26.753Z,2.40
2018-04-22T16:30:55.088Z,3.97
2018-04-22T16:33:23.427Z,6.20
2018-04-22T16:35:51.746Z,3.00
2018-04-22T16:38:20.083Z,3.37
2018-04-22T16:40:48.388Z,7.07
2018-04-22T16:43:16.747Z,3.77
2018-04-22T16:45:46.067Z,14.33
2018-04-22T16:48:14.427Z,2.77
2018-04-22T16:50:42.738Z,4.17
2018-04-22T16:53:12.104Z,2.83
2018-04-22T16:55:40.429Z,3.73
2018-04-22T16:58:13.208Z,2.80
2018-04-22T17:00:41.523Z,3.20
2018-04-22T17:03:14.979Z,2.50
2018-04-22T17:05:43.293Z,2.73
2018-04-22T17:08:12.584Z,2.90
2018-04-22T17:10:40.896Z,2.97
2018-04-22T17:13:13.738Z,2.90
2018-04-22T17:15:42.863Z,2.93
2018-04-22T17:18:12.219Z,3.03
2018-04-22T17:20:41.312Z,3.00
2018-04-22T17:23:09.736Z,3.67
2018-04-22T17:25:41.635Z,3.33
2018-04-22T17:28:09.980Z,2.80
2018-04-22T17:30:38.839Z,3.20
2018-04-22T17:33:07.923Z,3.43
2018-04-22T17:35:38.066Z,3.00
2018-04-22T17:38:06.403Z,3.40
2018-04-22T17:40:34.740Z,3.27
2018-04-22T17:43:03.055Z,3.33
2018-04-22T17:45:31.386Z,3.33
2018-04-22T17:48:00.510Z,3.90
2018-04-22T17:50:28.912Z,3.37
2018-04-22T17:52:57.268Z,3.37
2018-04-22T17:55:25.635Z,3.40
2018-04-22T17:57:53.958Z,5.10
2018-04-22T18:00:22.324Z,3.50
2018-04-22T18:02:56.447Z,3.60
2018-04-22T18:05:24.802Z,4.53
2018-04-22T18:07:53.134Z,3.80
2018-04-22T18:10:21.563Z,4.33
2018-04-22T18:12:49.874Z,4.03
2018-04-22T18:15:18.980Z,6.30
2018-04-22T18:17:47.364Z,5.37
2018-04-22T18:20:16.709Z,4.40
2018-04-22T18:22:45.017Z,4.50
2018-04-22T18:25:14.085Z,4.60
2018-04-22T18:27:42.464Z,4.57
2018-04-22T18:30:10.769Z,4.70
2018-04-22T18:32:39.869Z,4.47
2018-04-22T18:35:09.954Z,5.43
2018-04-22T18:37:38.307Z,4.67
2018-04-22T18:40:06.675Z,4.40
2018-04-22T18:42:44.720Z,5.10
2018-04-22T18:45:14.039Z,4.63
2018-04-22T18:47:43.178Z,4.50
2018-04-22T18:50:11.499Z,4.40
2018-04-22T18:52:39.840Z,5.00
2018-04-22T18:55:08.167Z,5.20
2018-04-22T18:57:38.499Z,5.47
2018-04-22T19:00:06.836Z,5.40
2018-04-22T19:02:35.169Z,5.37
2018-04-22T19:05:04.243Z,5.23
2018-04-22T19:07:33.262Z,4.40
2018-04-22T19:10:01.609Z,5.80
2018-04-22T19:12:29.942Z,4.67
2018-04-22T19:14:58.266Z,5.33
2018-04-22T19:17:27.375Z,5.43
2018-04-22T19:19:55.688Z,5.17
2018-04-22T19:22:27.911Z,5.77
2018-04-22T19:24:56.987Z,4.70
2018-04-22T19:27:25.320Z,5.20
2018-04-22T19:29:54.414Z,5.83
2018-04-22T19:32:22.739Z,5.13
2018-04-22T19:34:51.085Z,4.90
2018-04-22T19:37:19.395Z,6.20
2018-04-22T19:39:47.705Z,5.33
2018-04-22T19:42:16.820Z,5.70
2018-04-22T19:44:50.972Z,5.73
2018-04-22T19:47:19.325Z,5.00
2018-04-22T19:49:47.627Z,6.33
2018-04-22T19:52:18.284Z,6.20
2018-04-22T19:54:46.684Z,5.93
2018-04-22T19:57:15.750Z,5.87
2018-04-22T19:59:44.086Z,6.10
2018-04-22T20:02:12.391Z,5.60
2018-04-22T20:04:40.717Z,5.70
2018-04-22T20:07:09.032Z,6.07
2018-04-22T20:09:37.360Z,5.77
2018-04-22T20:12:06.435Z,5.80
2018-04-22T20:14:34.766Z,6.40
2018-04-22T20:17:03.086Z,6.13
2018-04-22T20:19:31.421Z,6.40
2018-04-22T20:21:59.761Z,5.13
2018-04-22T20:24:29.542Z,5.43
2018-04-22T20:26:58.832Z,5.87
2018-04-22T20:29:27.164Z,6.40
2018-04-22T20:31:55.492Z,6.00
2018-04-22T20:34:23.835Z,6.60
2018-04-22T20:36:52.140Z,5.43
2018-04-22T20:39:22.487Z,5.50
2018-04-22T20:41:51.767Z,6.10
2018-04-22T20:44:20.104Z,6.50
2018-04-22T20:46:48.411Z,6.10
2018-04-22T20:49:16.718Z,6.87
2018-04-22T20:51:45.059Z,6.93
2018-04-22T20:54:13.376Z,6.23
2018-04-22T20:56:41.720Z,6.60
2018-04-22T20:59:10.045Z,6.37
2018-04-22T21:01:39.160Z,5.93
2018-04-22T21:04:07.475Z,6.80
2018-04-22T21:06:35.803Z,7.30
2018-04-22T21:09:13.529Z,6.83
2018-04-22T21:11:41.870Z,6.87
2018-04-22T21:14:10.217Z,6.83
2018-04-22T21:16:38.567Z,6.00
2018-04-22T21:19:06.877Z,6.87
2018-04-22T21:21:35.238Z,5.90
2018-04-22T21:24:03.551Z,6.10
2018-04-22T21:26:32.003Z,6.10
2018-04-22T21:29:00.319Z,5.93
2018-04-22T21:31:29.520Z,6.20
2018-04-22T21:33:58.637Z,5.80
2018-04-22T21:36:27.719Z,6.67
2018-04-22T21:38:56.023Z,6.40
2018-04-22T21:41:24.365Z,6.10
2018-04-22T21:43:52.681Z,5.97
2018-04-22T21:46:20.996Z,5.77
2018-04-22T21:48:49.312Z,7.03
2018-04-22T21:51:18.416Z,5.77
2018-04-22T21:53:46.737Z,5.93
2018-04-22T21:56:15.073Z,6.50
2018-04-22T21:58:43.403Z,6.10
2018-04-22T22:01:11.740Z,6.33
2018-04-22T22:03:40.101Z,7.53
2018-04-22T22:06:09.177Z,6.17
2018-04-22T22:08:38.500Z,6.43
2018-04-22T22:11:07.580Z,6.80
2018-04-22T22:13:35.903Z,7.37
2018-04-22T22:16:04.247Z,7.13
2018-04-22T22:18:33.355Z,7.20
2018-04-22T22:21:02.434Z,7.13
2018-04-22T22:23:30.766Z,7.33
2018-04-22T22:25:59.080Z,7.37
2018-04-22T22:28:27.427Z,7.07
2018-04-22T22:30:55.739Z,7.57
2018-04-22T22:33:24.065Z,7.60
2018-04-22T22:35:52.374Z,7.50
2018-04-22T22:38:20.705Z,7.30
2018-04-22T22:40:49.771Z,7.57
2018-04-22T22:43:18.100Z,7.77
2018-04-22T22:45:46.418Z,6.73
2018-04-22T22:48:14.738Z,7.37
2018-04-22T22:50:43.808Z,8.57
2018-04-22T22:53:12.162Z,7.03
2018-04-22T22:55:40.487Z,8.53
2018-04-22T22:58:09.587Z,7.47
2018-04-22T23:00:38.868Z,6.73
2018-04-22T23:03:07.193Z,6.83
2018-04-22T23:05:35.534Z,7.30
2018-04-22T23:08:04.844Z,7.13
2018-04-22T23:10:33.180Z,7.60
2018-04-22T23:13:01.500Z,7.83
2018-04-22T23:15:29.831Z,7.23
2018-04-22T23:17:58.141Z,6.63
2018-04-22T23:20:26.518Z,6.70
2018-04-22T23:22:56.849Z,7.67
2018-04-22T23:25:25.172Z,6.40
2018-04-22T23:27:53.472Z,6.43
2018-04-22T23:30:21.815Z,7.60
2018-04-22T23:32:50.878Z,6.77
2018-04-22T23:35:19.202Z,6.37
2018-04-22T23:37:47.533Z,7.30
2018-04-22T23:40:15.866Z,6.70
2018-04-22T23:42:44.173Z,7.10
2018-04-22T23:45:12.493Z,6.50
2018-04-22T23:47:40.803Z,6.57
2018-04-22T23:50:09.127Z,6.87
2018-04-22T23:52:37.890Z,7.40
2018-04-22T23:55:06.215Z,7.90
2018-04-22T23:57:34.549Z,7.10
